createdAt,value
2022-11-25T00:01:13.314Z,10.67
2022-11-25T00:03:41.164Z,11.43
2022-11-25T00:06:19.746Z,13.67
2022-11-25T00:08:48.344Z,17.63
2022-11-25T00:11:15.766Z,11.77
2022-11-25T00:13:43.502Z,16.57
2022-11-25T00:16:14.639Z,16.97
2022-11-25T00:18:44.971Z,12.07
2022-11-25T00:21:16.111Z,10.87
2022-11-25T00:23:42.832Z,13.30
2022-11-25T00:26:16.713Z,15.93
2022-11-25T00:28:45.990Z,15.93
2022-11-25T00:31:18.847Z,17.63
2022-11-25T00:33:46.486Z,12.03
2022-11-25T00:36:25.305Z,12.83
2022-11-25T00:38:57.352Z,18.23
2022-11-25T00:41:43.122Z,17.27
2022-11-25T00:44:29.646Z,17.07
2022-11-25T00:46:56.637Z,13.17
2022-11-25T00:49:23.563Z,19.23
2022-11-25T00:51:50.179Z,12.07
2022-11-25T00:54:16.776Z,16.77
2022-11-25T00:56:43.423Z,17.37
2022-11-25T00:59:10.131Z,12.00
2022-11-25T01:01:38.672Z,14.37
2022-11-25T01:04:06.530Z,9.80
2022-11-25T01:06:34.694Z,11.17
2022-11-25T01:09:01.570Z,13.40
2022-11-25T01:11:28.215Z,11.63
2022-11-25T01:14:00.863Z,15.53
2022-11-25T01:16:29.467Z,12.53
2022-11-25T01:18:56.471Z,11.33
2022-11-25T01:21:26.502Z,11.37
2022-11-25T01:23:53.637Z,15.47
2022-11-25T01:26:24.839Z,16.30
2022-11-25T01:29:03.139Z,15.70
2022-11-25T01:31:35.782Z,17.83
2022-11-25T01:34:06.581Z,14.13
2022-11-25T01:36:35.312Z,17.73
2022-11-25T01:39:04.044Z,16.37
2022-11-25T01:41:32.514Z,18.40
2022-11-25T01:44:19.732Z,14.00
2022-11-25T01:46:55.431Z,15.70
2022-11-25T01:49:33.107Z,16.23
2022-11-25T01:52:06.360Z,16.80
2022-11-25T01:54:39.259Z,18.60
2022-11-25T01:57:15.281Z,15.20
2022-11-25T01:59:47.347Z,17.67
2022-11-25T02:02:15.841Z,19.60
2022-11-25T02:04:44.847Z,13.40
2022-11-25T02:07:19.612Z,14.60
2022-11-25T02:09:47.318Z,14.10
2022-11-25T02:12:16.532Z,15.57
2022-11-25T02:14:44.487Z,12.37
2022-11-25T02:17:11.656Z,14.13
2022-11-25T02:19:53.307Z,10.97
2022-11-25T02:22:50.127Z,12.67
2022-11-25T02:25:22.531Z,14.77
2022-11-25T02:27:53.093Z,9.77
2022-11-25T02:30:20.048Z,11.07
2022-11-25T02:32:48.315Z,12.87
2022-11-25T02:35:50.054Z,9.80
2022-11-25T02:38:20.629Z,13.20
2022-11-25T02:40:52.980Z,11.30
2022-11-25T02:43:19.713Z,7.17
2022-11-25T02:45:55.486Z,12.73
2022-11-25T02:48:39.790Z,14.00
2022-11-25T02:51:12.521Z,11.80
2022-11-25T02:53:40.180Z,13.40
2022-11-25T02:56:07.406Z,13.90
2022-11-25T02:58:34.186Z,8.07
2022-11-25T03:01:00.810Z,14.03
2022-11-25T03:03:27.498Z,6.87
2022-11-25T03:05:54.443Z,7.80
2022-11-25T03:08:21.287Z,9.50
2022-11-25T03:10:48.674Z,6.03
2022-11-25T03:13:16.726Z,8.57
2022-11-25T03:15:43.444Z,10.80
2022-11-25T03:18:10.158Z,9.20
2022-11-25T03:20:37.530Z,11.63
2022-11-25T03:23:05.590Z,9.97
2022-11-25T03:25:32.800Z,9.40
2022-11-25T03:27:59.412Z,11.87
2022-11-25T03:30:28.450Z,7.77
2022-11-25T03:32:58.281Z,7.67
2022-11-25T03:35:26.355Z,8.80
2022-11-25T03:37:53.548Z,11.87
2022-11-25T03:40:20.365Z,7.43
2022-11-25T03:42:47.024Z,7.23
2022-11-25T03:45:16.342Z,11.97
2022-11-25T03:47:46.362Z,6.77
2022-11-25T03:50:14.975Z,6.10
2022-11-25T03:52:43.045Z,8.87
2022-11-25T03:55:13.028Z,8.00
2022-11-25T03:57:41.958Z,8.40
2022-11-25T04:00:09.759Z,5.73
2022-11-25T04:02:50.049Z,6.90
2022-11-25T04:05:17.495Z,7.97
2022-11-25T04:07:44.224Z,7.83
2022-11-25T04:10:12.165Z,9.33
2022-11-25T04:12:47.710Z,9.30
2022-11-25T04:15:21.616Z,10.77
2022-11-25T04:17:55.996Z,8.83
2022-11-25T04:20:22.606Z,8.17
2022-11-25T04:22:55.681Z,7.60
2022-11-25T04:25:22.854Z,6.77
2022-11-25T04:27:50.284Z,7.43
2022-11-25T04:30:21.929Z,10.47
2022-11-25T04:32:48.594Z,8.87
2022-11-25T04:35:16.268Z,8.70
2022-11-25T04:37:46.170Z,8.20
2022-11-25T04:40:14.751Z,8.53
2022-11-25T04:42:46.075Z,6.83
2022-11-25T04:45:24.298Z,6.83
2022-11-25T04:47:53.250Z,8.57
2022-11-25T04:50:22.639Z,5.87
2022-11-25T04:53:04.443Z,5.00
2022-11-25T04:55:31.618Z,6.13
2022-11-25T04:58:00.975Z,6.20
2022-11-25T05:00:29.433Z,5.17
2022-11-25T05:02:56.930Z,6.43
2022-11-25T05:05:24.307Z,5.43
2022-11-25T05:07:51.006Z,7.03
2022-11-25T05:10:20.100Z,11.83
2022-11-25T05:12:48.782Z,6.33
2022-11-25T05:15:18.235Z,7.53
2022-11-25T05:17:46.826Z,10.53
2022-11-25T05:20:15.181Z,7.90
2022-11-25T05:22:41.783Z,8.20
2022-11-25T05:25:13.686Z,5.70
2022-11-25T05:27:50.749Z,8.67
2022-11-25T05:30:17.566Z,3.87
2022-11-25T05:32:44.822Z,6.90
2022-11-25T05:35:11.431Z,7.97
2022-11-25T05:37:39.815Z,6.90
2022-11-25T05:40:07.573Z,7.87
2022-11-25T05:42:52.691Z,5.90
2022-11-25T05:45:20.135Z,7.80
2022-11-25T05:47:46.799Z,6.00
2022-11-25T05:50:18.157Z,6.27
2022-11-25T05:53:02.883Z,6.30
2022-11-25T05:55:29.576Z,6.63
2022-11-25T05:57:58.925Z,6.53
2022-11-25T06:00:26.965Z,8.50
2022-11-25T06:02:54.573Z,6.53
2022-11-25T06:05:22.285Z,7.07
2022-11-25T06:07:50.480Z,9.73
2022-11-25T06:10:17.956Z,7.10
2022-11-25T06:12:44.663Z,7.73
2022-11-25T06:15:12.230Z,6.37
2022-11-25T06:17:39.706Z,8.37
2022-11-25T06:20:23.526Z,9.73
2022-11-25T06:22:51.108Z,8.23
2022-11-25T06:25:23.031Z,6.63
2022-11-25T06:28:11.821Z,6.10
2022-11-25T06:30:37.929Z,9.70
2022-11-25T06:33:17.689Z,5.07
2022-11-25T06:35:46.155Z,7.77
2022-11-25T06:38:12.784Z,10.43
2022-11-25T06:40:39.462Z,11.27
2022-11-25T06:43:06.028Z,13.27
2022-11-25T06:45:33.299Z,6.70
2022-11-25T06:47:59.866Z,8.37
2022-11-25T06:50:26.531Z,11.03
2022-11-25T06:52:53.094Z,6.97
2022-11-25T06:55:19.674Z,6.63
2022-11-25T06:57:46.213Z,7.50
2022-11-25T07:00:13.295Z,6.20
2022-11-25T07:02:43.990Z,6.07
2022-11-25T07:05:11.992Z,7.37
2022-11-25T07:07:38.616Z,9.10
2022-11-25T07:10:05.939Z,8.03
2022-11-25T07:12:32.556Z,6.73
2022-11-25T07:14:59.132Z,6.97
2022-11-25T07:17:25.697Z,12.83
2022-11-25T07:19:52.289Z,9.30
2022-11-25T07:22:18.887Z,8.90
2022-11-25T07:24:45.475Z,7.30
2022-11-25T07:27:12.055Z,6.90
2022-11-25T07:32:25.190Z,9.17
2022-11-25T07:34:51.867Z,7.40
2022-11-25T07:37:18.443Z,7.77
2022-11-25T07:39:45.031Z,6.20
2022-11-25T07:42:11.604Z,8.13
2022-11-25T07:44:38.241Z,7.00
2022-11-25T07:47:24.938Z,7.07
2022-11-25T07:49:51.842Z,8.77
2022-11-25T07:52:20.127Z,10.20
2022-11-25T07:54:46.709Z,10.00
2022-11-25T07:57:13.271Z,9.50
2022-11-25T07:59:41.389Z,9.27
2022-11-25T08:02:09.606Z,8.67
2022-11-25T08:04:36.858Z,7.90
2022-11-25T08:07:03.580Z,8.93
2022-11-25T08:09:30.385Z,9.47
2022-11-25T08:11:57.179Z,8.10
2022-11-25T08:14:23.801Z,7.47
2022-11-25T08:16:50.437Z,8.40
2022-11-25T08:19:18.231Z,7.53
2022-11-25T08:21:44.989Z,7.37
2022-11-25T08:24:17.927Z,8.13
2022-11-25T08:26:44.680Z,8.10
2022-11-25T08:29:15.362Z,9.53
2022-11-25T08:31:43.125Z,8.77
2022-11-25T08:34:18.029Z,6.47
2022-11-25T08:36:48.264Z,10.97
2022-11-25T08:39:44.028Z,8.80
2022-11-25T08:42:04.969Z,8.43
2022-11-25T08:44:31.903Z,7.50
2022-11-25T08:46:58.578Z,9.30
2022-11-25T08:49:27.134Z,5.90
2022-11-25T08:51:53.745Z,6.97
2022-11-25T08:54:20.352Z,8.97
2022-11-25T08:56:47.000Z,10.67
2022-11-25T08:59:13.625Z,9.37
2022-11-25T09:01:40.403Z,7.33
2022-11-25T09:04:07.006Z,11.17
2022-11-25T09:06:33.613Z,7.43
2022-11-25T09:09:01.789Z,11.60
2022-11-25T09:11:29.107Z,8.53
2022-11-25T09:13:56.001Z,9.10
2022-11-25T09:16:23.367Z,8.57
2022-11-25T09:18:55.648Z,8.43
2022-11-25T09:21:25.232Z,8.03
2022-11-25T09:23:54.557Z,7.00
2022-11-25T09:26:25.553Z,6.83
2022-11-25T09:28:52.800Z,6.80
2022-11-25T09:31:20.449Z,7.13
2022-11-25T09:33:47.563Z,5.77
2022-11-25T09:36:16.286Z,6.13
2022-11-25T09:38:45.955Z,6.53
2022-11-25T09:42:09.670Z,5.63
2022-11-25T09:45:27.382Z,7.80
2022-11-25T09:48:13.023Z,5.20
2022-11-25T09:50:50.554Z,6.13
2022-11-25T09:53:45.083Z,5.00
2022-11-25T09:56:18.440Z,6.43
2022-11-25T09:58:52.388Z,7.03
2022-11-25T10:01:23.784Z,9.73
2022-11-25T10:04:11.449Z,6.87
2022-11-25T10:06:49.439Z,7.00
2022-11-25T10:09:24.931Z,6.23
2022-11-25T10:11:54.739Z,5.93
2022-11-25T10:14:45.302Z,6.00
2022-11-25T10:17:33.868Z,5.90
2022-11-25T10:20:03.623Z,6.07
2022-11-25T10:22:36.547Z,7.33
2022-11-25T10:25:25.213Z,5.87
2022-11-25T10:27:57.693Z,5.13
2022-11-25T10:30:33.953Z,4.77
2022-11-25T10:33:07.111Z,5.77
2022-11-25T10:35:39.227Z,8.70
2022-11-25T10:38:18.773Z,6.53
2022-11-25T10:40:48.750Z,6.70
2022-11-25T10:43:15.636Z,6.27
2022-11-25T10:45:53.987Z,8.67
2022-11-25T10:48:44.231Z,8.00
2022-11-25T10:51:36.350Z,5.57
2022-11-25T10:54:13.445Z,7.90
2022-11-25T10:56:57.382Z,8.67
2022-11-25T10:59:33.371Z,6.23
2022-11-25T11:02:21.566Z,7.63
2022-11-25T11:05:29.702Z,6.93
2022-11-25T11:08:17.654Z,7.07
2022-11-25T11:10:45.407Z,5.77
2022-11-25T11:13:23.257Z,7.80
2022-11-25T11:15:50.759Z,5.17
2022-11-25T11:18:39.127Z,4.43
2022-11-25T11:21:08.082Z,6.83
2022-11-25T11:23:53.396Z,9.02
2022-11-25T11:26:34.933Z,6.80
2022-11-25T11:29:14.356Z,5.43
2022-11-25T11:31:48.541Z,7.13
2022-11-25T11:34:49.070Z,7.00
2022-11-25T11:37:28.535Z,5.27
2022-11-25T11:40:00.789Z,7.47
2022-11-25T11:42:50.552Z,6.97
2022-11-25T11:45:54.789Z,7.40
2022-11-25T11:48:40.471Z,5.97
2022-11-25T11:51:34.653Z,6.70
2022-11-25T11:54:04.039Z,7.93
2022-11-25T11:56:55.442Z,6.63
2022-11-25T11:59:49.553Z,4.83
2022-11-25T12:02:26.967Z,5.73
2022-11-25T12:05:14.590Z,7.03
2022-11-25T12:08:10.413Z,9.52
2022-11-25T12:10:43.182Z,8.52
2022-11-25T12:13:12.940Z,7.67
2022-11-25T12:15:43.319Z,9.45
2022-11-25T12:18:20.147Z,4.68
2022-11-25T12:21:03.417Z,6.23
2022-11-25T12:23:39.278Z,8.00
2022-11-25T12:26:15.893Z,5.93
2022-11-25T12:28:54.966Z,5.10
2022-11-25T12:31:43.018Z,5.37
2022-11-25T12:34:17.101Z,6.87
2022-11-25T12:36:47.448Z,4.33
2022-11-25T12:39:48.580Z,6.05
2022-11-25T12:42:20.783Z,8.63
2022-11-25T12:45:02.166Z,6.97
2022-11-25T12:47:28.895Z,7.32
2022-11-25T12:49:56.801Z,6.70
2022-11-25T12:52:34.667Z,4.73
2022-11-25T12:55:09.817Z,8.27
2022-11-25T12:57:55.042Z,7.82
2022-11-25T13:00:43.090Z,7.68
2022-11-25T13:03:33.825Z,5.70
2022-11-25T13:06:26.049Z,6.60
2022-11-25T13:08:58.245Z,5.43
2022-11-25T13:11:40.383Z,9.00
2022-11-25T13:14:26.264Z,6.68
2022-11-25T13:16:56.118Z,7.65
2022-11-25T13:19:24.066Z,8.20
2022-11-25T13:22:24.752Z,8.40
2022-11-25T13:24:51.389Z,7.55
2022-11-25T13:27:53.223Z,7.28
2022-11-25T13:30:31.765Z,6.43
2022-11-25T13:33:18.554Z,8.65
2022-11-25T13:35:46.151Z,8.27
2022-11-25T13:38:30.741Z,6.43
2022-11-25T13:41:20.295Z,7.22
2022-11-25T13:44:01.922Z,11.63
2022-11-25T13:46:41.829Z,8.15
2022-11-25T13:49:27.182Z,5.10
2022-11-25T13:52:01.402Z,7.30
2022-11-25T13:54:37.235Z,9.77
2022-11-25T13:57:09.908Z,7.65
2022-11-25T13:59:40.714Z,6.32
2022-11-25T14:02:29.040Z,7.95
2022-11-25T14:05:17.502Z,14.43
2022-11-25T14:07:57.240Z,8.52
2022-11-25T14:10:36.740Z,14.40
2022-11-25T14:13:26.212Z,13.82
2022-11-25T14:16:12.168Z,10.13
2022-11-25T14:19:21.782Z,19.98
2022-11-25T14:22:07.830Z,9.98
2022-11-25T14:24:41.482Z,7.80
2022-11-25T14:27:22.474Z,9.93
2022-11-25T14:29:58.515Z,8.43
2022-11-25T14:32:38.141Z,10.50
2022-11-25T14:35:21.884Z,8.43
2022-11-25T14:38:05.732Z,10.10
2022-11-25T14:40:41.834Z,10.65
2022-11-25T14:43:15.703Z,6.40
2022-11-25T14:45:42.480Z,7.90
2022-11-25T14:48:17.701Z,11.00
2022-11-25T14:51:18.627Z,7.93
2022-11-25T14:53:48.845Z,9.53
2022-11-25T14:56:22.219Z,8.53
2022-11-25T14:58:52.017Z,10.13
2022-11-25T15:01:23.231Z,9.83
2022-11-25T15:03:52.095Z,7.90
2022-11-25T15:06:21.060Z,8.67
2022-11-25T15:08:56.153Z,16.23
2022-11-25T15:11:28.080Z,9.27
2022-11-25T15:14:06.897Z,8.83
2022-11-25T15:16:43.475Z,11.33
2022-11-25T15:19:18.060Z,9.30
2022-11-25T15:22:20.886Z,11.30
2022-11-25T15:24:43.454Z,12.03
2022-11-25T15:27:27.561Z,9.30
2022-11-25T15:29:56.522Z,13.30
2022-11-25T15:32:27.502Z,10.07
2022-11-25T15:34:56.860Z,9.13
2022-11-25T15:37:24.177Z,10.83
2022-11-25T15:40:29.149Z,11.83
2022-11-25T15:42:57.884Z,11.73
2022-11-25T15:45:33.699Z,12.43
2022-11-25T15:48:00.538Z,11.33
2022-11-25T15:50:28.961Z,9.43
2022-11-25T15:52:58.392Z,13.63
2022-11-25T15:55:34.330Z,12.93
2022-11-25T15:58:11.316Z,12.83
2022-11-25T16:00:38.390Z,12.00
2022-11-25T16:03:21.305Z,25.73
2022-11-25T16:05:56.109Z,14.50
2022-11-25T16:08:24.796Z,16.70
2022-11-25T16:10:54.378Z,11.27
2022-11-25T16:13:23.875Z,9.93
2022-11-25T16:16:10.229Z,11.73
2022-11-25T16:18:54.533Z,11.67
2022-11-25T16:21:36.070Z,10.27
2022-11-25T16:24:05.424Z,13.03
2022-11-25T16:26:36.410Z,11.10
2022-11-25T16:29:15.300Z,9.40
2022-11-25T16:31:42.116Z,9.00
2022-11-25T16:34:17.858Z,11.20
2022-11-25T16:36:44.472Z,11.73
2022-11-25T16:39:11.200Z,12.53
2022-11-25T16:41:38.575Z,11.13
2022-11-25T16:44:11.711Z,11.37
2022-11-25T16:46:38.284Z,10.53
2022-11-25T16:49:13.849Z,11.17
2022-11-25T16:51:40.450Z,10.87
2022-11-25T16:54:07.341Z,10.47
2022-11-25T16:56:37.611Z,12.07
2022-11-25T16:59:04.503Z,7.47
2022-11-25T17:01:33.537Z,8.40
2022-11-25T17:04:00.137Z,9.73
2022-11-25T17:06:29.269Z,11.17
2022-11-25T17:08:55.956Z,15.53
2022-11-25T17:11:26.903Z,13.53
2022-11-25T17:13:54.849Z,9.87
2022-11-25T17:16:26.006Z,10.30
2022-11-25T17:18:55.297Z,8.50
2022-11-25T17:21:27.017Z,11.00
2022-11-25T17:23:55.639Z,8.50
2022-11-25T17:26:31.771Z,11.70
2022-11-25T17:29:00.664Z,12.07
2022-11-25T17:31:30.166Z,9.73
2022-11-25T17:33:57.880Z,11.17
2022-11-25T17:36:26.260Z,8.87
2022-11-25T17:38:52.955Z,7.40
2022-11-25T17:41:21.912Z,12.63
2022-11-25T17:43:51.047Z,8.77
2022-11-25T17:46:18.548Z,10.73
2022-11-25T17:48:45.363Z,12.70
2022-11-25T17:51:13.753Z,12.27
2022-11-25T17:53:41.485Z,9.27
2022-11-25T17:56:23.418Z,9.10
2022-11-25T17:58:51.543Z,11.00
2022-11-25T18:01:18.518Z,8.07
2022-11-25T18:03:45.233Z,9.60
2022-11-25T18:06:11.869Z,13.43
2022-11-25T18:08:38.444Z,12.43
2022-11-25T18:11:07.498Z,11.23
2022-11-25T18:13:40.580Z,11.87
2022-11-25T18:16:08.799Z,12.20
2022-11-25T18:18:35.678Z,8.73
2022-11-25T18:21:02.524Z,11.07
2022-11-25T18:23:29.303Z,16.93
2022-11-25T18:25:58.666Z,11.73
2022-11-25T18:28:29.336Z,12.50
2022-11-25T18:30:59.976Z,8.40
2022-11-25T18:33:26.645Z,7.97
2022-11-25T18:35:53.287Z,8.47
2022-11-25T18:38:19.912Z,9.03
2022-11-25T18:40:53.082Z,8.30
2022-11-25T18:43:25.672Z,6.97
2022-11-25T18:45:54.225Z,9.83
2022-11-25T18:48:23.388Z,12.33
2022-11-25T18:50:53.077Z,10.93
2022-11-25T18:53:20.002Z,11.90
2022-11-25T18:55:48.420Z,12.90
2022-11-25T18:58:29.577Z,9.13
2022-11-25T19:01:02.693Z,8.90
2022-11-25T19:03:29.698Z,10.43
2022-11-25T19:05:59.386Z,12.53
2022-11-25T19:08:25.964Z,8.43
2022-11-25T19:10:52.990Z,13.47
2022-11-25T19:13:32.951Z,12.20
2022-11-25T19:16:06.938Z,10.10
2022-11-25T19:18:34.968Z,12.80
2022-11-25T19:21:02.389Z,12.83
2022-11-25T19:23:29.097Z,10.37
2022-11-25T19:26:02.037Z,12.53
2022-11-25T19:28:30.564Z,11.47
2022-11-25T19:31:00.087Z,11.57
2022-11-25T19:33:36.843Z,12.93
2022-11-25T19:36:04.372Z,14.20
2022-11-25T19:38:33.077Z,9.53
2022-11-25T19:40:59.743Z,9.97
2022-11-25T19:43:29.311Z,16.77
2022-11-25T19:45:57.548Z,13.67
2022-11-25T19:48:27.110Z,13.03
2022-11-25T19:50:59.597Z,10.90
2022-11-25T19:53:33.045Z,16.07
2022-11-25T19:56:03.942Z,11.70
2022-11-25T19:58:30.907Z,13.07
2022-11-25T20:01:01.708Z,13.40
2022-11-25T20:03:31.072Z,11.63
2022-11-25T20:05:58.236Z,9.23
2022-11-25T20:08:27.664Z,6.80
2022-11-25T20:10:55.816Z,8.83
2022-11-25T20:13:26.135Z,10.67
2022-11-25T20:15:55.149Z,10.73
2022-11-25T20:18:25.439Z,11.40
2022-11-25T20:21:03.373Z,12.13
2022-11-25T20:23:36.393Z,10.37
2022-11-25T20:26:06.799Z,14.23
2022-11-25T20:28:33.462Z,13.13
2022-11-25T20:31:00.102Z,11.17
2022-11-25T20:33:31.111Z,12.10
2022-11-25T20:36:06.475Z,12.03
2022-11-25T20:38:35.328Z,11.17
2022-11-25T20:41:02.470Z,14.23
2022-11-25T20:43:36.705Z,12.13
2022-11-25T20:46:03.883Z,12.57
2022-11-25T20:48:30.515Z,16.47
2022-11-25T20:51:02.300Z,11.30
2022-11-25T20:53:32.035Z,12.60
2022-11-25T20:55:59.185Z,16.70
2022-11-25T20:58:31.716Z,9.80
2022-11-25T21:00:59.600Z,12.83
2022-11-25T21:03:26.806Z,17.50
2022-11-25T21:05:55.408Z,11.67
2022-11-25T21:08:24.738Z,11.87
2022-11-25T21:10:56.557Z,9.73
2022-11-25T21:13:28.880Z,13.27
2022-11-25T21:15:57.626Z,11.63
2022-11-25T21:18:24.965Z,12.27
2022-11-25T21:20:54.135Z,11.63
2022-11-25T21:23:32.367Z,11.03
2022-11-25T21:26:05.663Z,11.30
2022-11-25T21:28:34.161Z,8.90
2022-11-25T21:31:00.765Z,13.93
2022-11-25T21:33:27.363Z,11.03
2022-11-25T21:35:54.014Z,8.77
2022-11-25T21:38:26.106Z,10.53
2022-11-25T21:40:57.863Z,9.73
2022-11-25T21:43:38.218Z,11.93
2022-11-25T21:46:10.018Z,12.77
2022-11-25T21:48:36.692Z,9.93
2022-11-25T21:51:03.412Z,11.77
2022-11-25T21:53:34.506Z,18.33
2022-11-25T21:56:03.976Z,13.93
2022-11-25T21:58:31.300Z,15.50
2022-11-25T22:01:00.386Z,14.40
2022-11-25T22:03:30.638Z,15.30
2022-11-25T22:05:57.551Z,9.03
2022-11-25T22:08:24.140Z,11.47
2022-11-25T22:10:53.170Z,17.20
2022-11-25T22:13:23.553Z,9.37
2022-11-25T22:15:57.505Z,10.33
2022-11-25T22:18:30.817Z,16.07
2022-11-25T22:20:58.001Z,17.00
2022-11-25T22:23:25.212Z,17.47
2022-11-25T22:25:52.703Z,15.83
2022-11-25T22:28:25.864Z,9.67
2022-11-25T22:30:59.996Z,14.23
2022-11-25T22:33:31.556Z,9.53
2022-11-25T22:35:58.223Z,8.13
2022-11-25T22:38:24.936Z,9.37
2022-11-25T22:40:58.299Z,11.37
2022-11-25T22:43:29.446Z,12.77
2022-11-25T22:45:56.845Z,12.90
2022-11-25T22:48:35.343Z,13.00
2022-11-25T22:51:02.646Z,14.57
2022-11-25T22:53:29.606Z,13.53
2022-11-25T22:55:59.271Z,12.63
2022-11-25T22:58:26.903Z,11.63
2022-11-25T23:00:56.063Z,8.50
2022-11-25T23:03:26.791Z,13.97
2022-11-25T23:05:54.420Z,13.97
2022-11-25T23:08:28.326Z,15.73
2022-11-25T23:10:56.196Z,15.83
2022-11-25T23:13:23.281Z,16.37
2022-11-25T23:15:55.325Z,18.00
2022-11-25T23:18:34.074Z,13.83
2022-11-25T23:21:04.352Z,11.50
2022-11-25T23:23:31.033Z,7.77
2022-11-25T23:25:58.240Z,9.73
2022-11-25T23:28:25.446Z,9.03
2022-11-25T23:30:54.848Z,11.40
2022-11-25T23:33:33.580Z,6.43
2022-11-25T23:36:04.799Z,9.53
2022-11-25T23:38:43.967Z,8.37
2022-11-25T23:41:30.866Z,9.83
2022-11-25T23:44:02.033Z,10.57
2022-11-25T23:46:34.298Z,9.20
2022-11-25T23:49:03.275Z,11.87
2022-11-25T23:51:30.435Z,10.13
2022-11-25T23:53:58.625Z,8.50
2022-11-25T23:56:27.226Z,12.87
2022-11-25T23:58:53.820Z,10.10
